sensor_id;sensor_type;location;lat;lon;timestamp;temperature;humidity
24338;DHT22;12457;50.832;4.346;2023-06-10T00:00:40;22.40;99.90
24338;DHT22;12457;50.832;4.346;2023-06-10T00:03:07;22.40;99.90
24338;DHT22;12457;50.832;4.346;2023-06-10T00:05:34;22.40;99.90
24338;DHT22;12457;50.832;4.346;2023-06-10T00:08:00;22.30;99.90
24338;DHT22;12457;50.832;4.346;2023-06-10T00:10:33;22.30;99.90
24338;DHT22;12457;50.832;4.346;2023-06-10T00:12:58;22.30;99.90
24338;DHT22;12457;50.832;4.346;2023-06-10T00:15:25;22.30;99.90
24338;DHT22;12457;50.832;4.346;2023-06-10T00:17:50;22.20;99.90
24338;DHT22;12457;50.832;4.346;2023-06-10T00:20:18;22.20;99.90
24338;DHT22;12457;50.832;4.346;2023-06-10T00:22:44;22.20;99.90
24338;DHT22;12457;50.832;4.346;2023-06-10T00:25:11;22.20;99.90
24338;DHT22;12457;50.832;4.346;2023-06-10T00:27:37;22.10;99.90
24338;DHT22;12457;50.832;4.346;2023-06-10T00:30:06;22.10;99.90
24338;DHT22;12457;50.832;4.346;2023-06-10T00:32:33;22.00;99.90
24338;DHT22;12457;50.832;4.346;2023-06-10T00:34:59;22.00;99.90
24338;DHT22;12457;50.832;4.346;2023-06-10T00:37:25;22.00;99.90
24338;DHT22;12457;50.832;4.346;2023-06-10T00:39:51;22.00;99.90
24338;DHT22;12457;50.832;4.346;2023-06-10T00:42:17;22.00;99.90
24338;DHT22;12457;50.832;4.346;2023-06-10T00:44:48;21.90;99.90
24338;DHT22;12457;50.832;4.346;2023-06-10T00:47:13;21.90;99.90
24338;DHT22;12457;50.832;4.346;2023-06-10T00:49:39;21.80;99.90
24338;DHT22;12457;50.832;4.346;2023-06-10T00:52:07;21.80;99.90
24338;DHT22;12457;50.832;4.346;2023-06-10T00:54:33;21.80;99.90
24338;DHT22;12457;50.832;4.346;2023-06-10T00:57:01;21.80;99.90
24338;DHT22;12457;50.832;4.346;2023-06-10T00:59:32;21.80;99.90
24338;DHT22;12457;50.832;4.346;2023-06-10T01:01:59;21.70;99.90
24338;DHT22;12457;50.832;4.346;2023-06-10T01:04:26;21.70;99.90
24338;DHT22;12457;50.832;4.346;2023-06-10T01:07:14;21.70;99.90
24338;DHT22;12457;50.832;4.346;2023-06-10T01:09:45;21.70;99.90
24338;DHT22;12457;50.832;4.346;2023-06-10T01:12:35;21.70;99.90
24338;DHT22;12457;50.832;4.346;2023-06-10T01:15:23;21.70;99.90
24338;DHT22;12457;50.832;4.346;2023-06-10T01:20:27;21.60;99.90
24338;DHT22;12457;50.832;4.346;2023-06-10T01:22:56;21.60;99.90
24338;DHT22;12457;50.832;4.346;2023-06-10T01:25:24;21.50;99.90
24338;DHT22;12457;50.832;4.346;2023-06-10T01:33:13;21.40;99.90
24338;DHT22;12457;50.832;4.346;2023-06-10T01:35:40;21.40;99.90
24338;DHT22;12457;50.832;4.346;2023-06-10T01:38:06;21.40;99.90
24338;DHT22;12457;50.832;4.346;2023-06-10T01:40:32;21.40;99.90
24338;DHT22;12457;50.832;4.346;2023-06-10T01:42:59;21.40;99.90
24338;DHT22;12457;50.832;4.346;2023-06-10T01:45:26;21.30;99.90
24338;DHT22;12457;50.832;4.346;2023-06-10T01:47:52;21.30;99.90
24338;DHT22;12457;50.832;4.346;2023-06-10T01:50:17;21.30;99.90
24338;DHT22;12457;50.832;4.346;2023-06-10T01:52:43;21.30;99.90
24338;DHT22;12457;50.832;4.346;2023-06-10T01:55:09;21.30;99.90
24338;DHT22;12457;50.832;4.346;2023-06-10T01:57:34;21.20;99.90
24338;DHT22;12457;50.832;4.346;2023-06-10T02:00:12;21.20;99.90
24338;DHT22;12457;50.832;4.346;2023-06-10T02:02:38;21.20;99.90
24338;DHT22;12457;50.832;4.346;2023-06-10T02:05:04;21.10;99.90
24338;DHT22;12457;50.832;4.346;2023-06-10T02:07:30;21.10;99.90
24338;DHT22;12457;50.832;4.346;2023-06-10T02:09:56;21.10;99.90
24338;DHT22;12457;50.832;4.346;2023-06-10T02:12:23;21.10;99.90
24338;DHT22;12457;50.832;4.346;2023-06-10T02:14:48;21.00;99.90
24338;DHT22;12457;50.832;4.346;2023-06-10T02:17:14;21.00;99.90
24338;DHT22;12457;50.832;4.346;2023-06-10T02:19:41;21.00;99.90
24338;DHT22;12457;50.832;4.346;2023-06-10T02:22:12;21.00;99.90
24338;DHT22;12457;50.832;4.346;2023-06-10T02:24:38;20.90;99.90
24338;DHT22;12457;50.832;4.346;2023-06-10T02:27:05;20.90;99.90
24338;DHT22;12457;50.832;4.346;2023-06-10T02:29:34;20.90;99.90
24338;DHT22;12457;50.832;4.346;2023-06-10T02:32:02;20.80;99.90
24338;DHT22;12457;50.832;4.346;2023-06-10T02:34:27;20.80;99.90
24338;DHT22;12457;50.832;4.346;2023-06-10T02:36:54;20.80;99.90
24338;DHT22;12457;50.832;4.346;2023-06-10T02:39:21;20.80;99.90
24338;DHT22;12457;50.832;4.346;2023-06-10T02:41:47;20.70;99.90
24338;DHT22;12457;50.832;4.346;2023-06-10T02:44:12;20.70;99.90
24338;DHT22;12457;50.832;4.346;2023-06-10T02:46:38;20.70;99.90
24338;DHT22;12457;50.832;4.346;2023-06-10T02:49:04;20.70;99.90
24338;DHT22;12457;50.832;4.346;2023-06-10T02:51:29;20.70;99.90
24338;DHT22;12457;50.832;4.346;2023-06-10T02:53:55;20.70;99.90
24338;DHT22;12457;50.832;4.346;2023-06-10T02:56:21;20.60;99.90
24338;DHT22;12457;50.832;4.346;2023-06-10T02:58:47;20.60;99.90
24338;DHT22;12457;50.832;4.346;2023-06-10T03:01:14;20.60;99.90
24338;DHT22;12457;50.832;4.346;2023-06-10T03:03:40;20.50;99.90
24338;DHT22;12457;50.832;4.346;2023-06-10T03:06:11;20.50;99.90
24338;DHT22;12457;50.832;4.346;2023-06-10T03:08:38;20.50;99.90
24338;DHT22;12457;50.832;4.346;2023-06-10T03:11:04;20.50;99.90
24338;DHT22;12457;50.832;4.346;2023-06-10T03:13:29;20.40;99.90
24338;DHT22;12457;50.832;4.346;2023-06-10T03:15:58;20.40;99.90
24338;DHT22;12457;50.832;4.346;2023-06-10T03:18:27;20.40;99.90
24338;DHT22;12457;50.832;4.346;2023-06-10T03:20:57;20.40;99.90
24338;DHT22;12457;50.832;4.346;2023-06-10T03:23:23;20.30;99.90
24338;DHT22;12457;50.832;4.346;2023-06-10T03:25:49;20.40;99.90
24338;DHT22;12457;50.832;4.346;2023-06-10T03:28:15;20.30;99.90
24338;DHT22;12457;50.832;4.346;2023-06-10T03:30:40;20.30;99.90
24338;DHT22;12457;50.832;4.346;2023-06-10T03:33:06;20.30;99.90
24338;DHT22;12457;50.832;4.346;2023-06-10T03:35:32;20.30;99.90
24338;DHT22;12457;50.832;4.346;2023-06-10T03:37:58;20.30;99.90
24338;DHT22;12457;50.832;4.346;2023-06-10T03:40:24;20.20;99.90
24338;DHT22;12457;50.832;4.346;2023-06-10T03:42:50;20.20;99.90
24338;DHT22;12457;50.832;4.346;2023-06-10T03:45:16;20.30;99.90
24338;DHT22;12457;50.832;4.346;2023-06-10T03:47:42;20.20;99.90
24338;DHT22;12457;50.832;4.346;2023-06-10T03:50:09;20.20;99.90
24338;DHT22;12457;50.832;4.346;2023-06-10T03:52:37;20.20;99.90
24338;DHT22;12457;50.832;4.346;2023-06-10T03:55:03;20.20;99.90
24338;DHT22;12457;50.832;4.346;2023-06-10T03:57:29;20.20;99.90
24338;DHT22;12457;50.832;4.346;2023-06-10T03:59:55;20.20;99.90
24338;DHT22;12457;50.832;4.346;2023-06-10T04:02:46;20.20;99.90
24338;DHT22;12457;50.832;4.346;2023-06-10T04:05:17;20.20;99.90
24338;DHT22;12457;50.832;4.346;2023-06-10T04:07:43;20.20;99.90
24338;DHT22;12457;50.832;4.346;2023-06-10T04:10:12;20.20;99.90
24338;DHT22;12457;50.832;4.346;2023-06-10T04:12:38;20.20;99.90
24338;DHT22;12457;50.832;4.346;2023-06-10T04:15:06;20.20;99.90
24338;DHT22;12457;50.832;4.346;2023-06-10T04:20:54;20.20;99.90
24338;DHT22;12457;50.832;4.346;2023-06-10T04:23:21;20.20;99.90
24338;DHT22;12457;50.832;4.346;2023-06-10T04:25:46;20.20;99.90
24338;DHT22;12457;50.832;4.346;2023-06-10T04:28:13;20.20;99.90
24338;DHT22;12457;50.832;4.346;2023-06-10T04:30:39;20.30;99.90
24338;DHT22;12457;50.832;4.346;2023-06-10T04:36:27;20.90;99.90
24338;DHT22;12457;50.832;4.346;2023-06-10T04:38:54;21.30;99.90
24338;DHT22;12457;50.832;4.346;2023-06-10T04:41:20;21.60;99.90
24338;DHT22;12457;50.832;4.346;2023-06-10T04:43:46;21.90;99.90
24338;DHT22;12457;50.832;4.346;2023-06-10T04:46:11;22.10;99.90
24338;DHT22;12457;50.832;4.346;2023-06-10T04:48:38;22.30;99.90
24338;DHT22;12457;50.832;4.346;2023-06-10T04:51:04;22.50;99.90
24338;DHT22;12457;50.832;4.346;2023-06-10T04:53:31;22.70;99.90
24338;DHT22;12457;50.832;4.346;2023-06-10T04:55:57;22.80;99.90
24338;DHT22;12457;50.832;4.346;2023-06-10T04:58:23;23.00;99.90
24338;DHT22;12457;50.832;4.346;2023-06-10T05:00:49;23.10;99.90
24338;DHT22;12457;50.832;4.346;2023-06-10T05:03:52;23.40;99.90
24338;DHT22;12457;50.832;4.346;2023-06-10T05:06:18;23.60;99.90
24338;DHT22;12457;50.832;4.346;2023-06-10T05:08:43;23.80;99.90
24338;DHT22;12457;50.832;4.346;2023-06-10T05:11:09;23.80;99.90
24338;DHT22;12457;50.832;4.346;2023-06-10T05:13:35;24.20;99.90
24338;DHT22;12457;50.832;4.346;2023-06-10T05:16:01;24.10;99.90
24338;DHT22;12457;50.832;4.346;2023-06-10T05:18:27;24.30;99.90
24338;DHT22;12457;50.832;4.346;2023-06-10T05:20:53;24.70;99.90
24338;DHT22;12457;50.832;4.346;2023-06-10T05:23:21;25.00;99.90
24338;DHT22;12457;50.832;4.346;2023-06-10T05:25:46;24.90;99.70
24338;DHT22;12457;50.832;4.346;2023-06-10T05:28:13;24.70;99.90
24338;DHT22;12457;50.832;4.346;2023-06-10T05:30:39;24.90;99.60
24338;DHT22;12457;50.832;4.346;2023-06-10T05:33:04;24.60;99.80
24338;DHT22;12457;50.832;4.346;2023-06-10T05:35:30;24.60;99.90
24338;DHT22;12457;50.832;4.346;2023-06-10T05:37:56;24.60;99.80
24338;DHT22;12457;50.832;4.346;2023-06-10T05:40:22;25.00;99.50
24338;DHT22;12457;50.832;4.346;2023-06-10T05:42:47;25.10;98.90
24338;DHT22;12457;50.832;4.346;2023-06-10T05:45:13;25.40;98.40
24338;DHT22;12457;50.832;4.346;2023-06-10T05:47:39;25.70;97.40
24338;DHT22;12457;50.832;4.346;2023-06-10T05:50:06;25.80;96.70
24338;DHT22;12457;50.832;4.346;2023-06-10T05:52:36;25.60;96.90
24338;DHT22;12457;50.832;4.346;2023-06-10T05:55:05;25.60;97.10
24338;DHT22;12457;50.832;4.346;2023-06-10T05:57:31;25.70;96.70
24338;DHT22;12457;50.832;4.346;2023-06-10T05:59:57;25.70;96.70
24338;DHT22;12457;50.832;4.346;2023-06-10T06:02:22;26.60;95.40
24338;DHT22;12457;50.832;4.346;2023-06-10T06:04:48;26.80;94.00
24338;DHT22;12457;50.832;4.346;2023-06-10T06:07:14;26.30;94.60
24338;DHT22;12457;50.832;4.346;2023-06-10T06:09:40;26.20;95.10
24338;DHT22;12457;50.832;4.346;2023-06-10T06:12:06;26.40;94.60
24338;DHT22;12457;50.832;4.346;2023-06-10T06:14:36;26.90;93.50
24338;DHT22;12457;50.832;4.346;2023-06-10T06:17:02;26.90;93.20
24338;DHT22;12457;50.832;4.346;2023-06-10T06:19:29;27.40;92.40
24338;DHT22;12457;50.832;4.346;2023-06-10T06:21:54;28.20;90.70
24338;DHT22;12457;50.832;4.346;2023-06-10T06:24:20;28.50;88.70
24338;DHT22;12457;50.832;4.346;2023-06-10T06:26:46;27.50;89.40
24338;DHT22;12457;50.832;4.346;2023-06-10T06:29:12;26.90;90.80
24338;DHT22;12457;50.832;4.346;2023-06-10T06:31:37;26.70;91.60
24338;DHT22;12457;50.832;4.346;2023-06-10T06:34:03;26.80;92.00
24338;DHT22;12457;50.832;4.346;2023-06-10T06:36:29;26.80;91.80
24338;DHT22;12457;50.832;4.346;2023-06-10T06:38:55;27.30;91.50
24338;DHT22;12457;50.832;4.346;2023-06-10T06:41:21;27.90;90.20
24338;DHT22;12457;50.832;4.346;2023-06-10T06:43:47;28.10;87.60
24338;DHT22;12457;50.832;4.346;2023-06-10T06:46:13;27.40;88.70
24338;DHT22;12457;50.832;4.346;2023-06-10T06:48:39;26.90;90.30
24338;DHT22;12457;50.832;4.346;2023-06-10T06:51:05;26.90;90.50
24338;DHT22;12457;50.832;4.346;2023-06-10T06:53:30;26.80;90.90
24338;DHT22;12457;50.832;4.346;2023-06-10T06:55:56;26.70;90.70
24338;DHT22;12457;50.832;4.346;2023-06-10T06:58:22;26.90;90.70
24338;DHT22;12457;50.832;4.346;2023-06-10T07:00:48;26.90;90.40
24338;DHT22;12457;50.832;4.346;2023-06-10T07:03:33;26.90;91.00
24338;DHT22;12457;50.832;4.346;2023-06-10T07:05:59;27.30;90.30
24338;DHT22;12457;50.832;4.346;2023-06-10T07:08:25;27.30;89.60
24338;DHT22;12457;50.832;4.346;2023-06-10T07:10:50;27.30;89.00
24338;DHT22;12457;50.832;4.346;2023-06-10T07:13:16;27.20;89.80
24338;DHT22;12457;50.832;4.346;2023-06-10T07:15:42;27.50;89.30
24338;DHT22;12457;50.832;4.346;2023-06-10T07:18:07;27.80;86.20
24338;DHT22;12457;50.832;4.346;2023-06-10T07:20:34;27.80;86.80
24338;DHT22;12457;50.832;4.346;2023-06-10T07:23:01;27.70;86.80
24338;DHT22;12457;50.832;4.346;2023-06-10T07:25:27;27.80;86.60
24338;DHT22;12457;50.832;4.346;2023-06-10T07:27:52;28.40;85.60
24338;DHT22;12457;50.832;4.346;2023-06-10T07:30:18;28.70;81.60
24338;DHT22;12457;50.832;4.346;2023-06-10T07:32:44;28.50;80.00
24338;DHT22;12457;50.832;4.346;2023-06-10T07:35:10;28.90;79.30
24338;DHT22;12457;50.832;4.346;2023-06-10T07:37:37;28.90;78.50
24338;DHT22;12457;50.832;4.346;2023-06-10T07:40:02;28.60;79.80
24338;DHT22;12457;50.832;4.346;2023-06-10T07:42:28;28.20;78.60
24338;DHT22;12457;50.832;4.346;2023-06-10T07:44:54;28.00;79.20
24338;DHT22;12457;50.832;4.346;2023-06-10T07:47:22;28.60;80.10
24338;DHT22;12457;50.832;4.346;2023-06-10T07:50:06;29.40;77.20
24338;DHT22;12457;50.832;4.346;2023-06-10T07:52:32;29.40;75.80
24338;DHT22;12457;50.832;4.346;2023-06-10T07:54:58;30.10;72.60
24338;DHT22;12457;50.832;4.346;2023-06-10T07:57:24;31.00;69.70
24338;DHT22;12457;50.832;4.346;2023-06-10T07:59:50;30.70;68.30
24338;DHT22;12457;50.832;4.346;2023-06-10T08:02:16;29.70;68.10
24338;DHT22;12457;50.832;4.346;2023-06-10T08:04:42;28.90;71.50
24338;DHT22;12457;50.832;4.346;2023-06-10T08:07:09;29.30;71.20
24338;DHT22;12457;50.832;4.346;2023-06-10T08:09:34;29.90;70.50
24338;DHT22;12457;50.832;4.346;2023-06-10T08:12:01;30.60;68.30
24338;DHT22;12457;50.832;4.346;2023-06-10T08:14:31;30.80;67.10
24338;DHT22;12457;50.832;4.346;2023-06-10T08:16:58;29.70;67.60
24338;DHT22;12457;50.832;4.346;2023-06-10T08:19:25;29.40;70.00
24338;DHT22;12457;50.832;4.346;2023-06-10T08:21:51;29.30;69.70
24338;DHT22;12457;50.832;4.346;2023-06-10T08:24:17;28.90;69.80
24338;DHT22;12457;50.832;4.346;2023-06-10T08:26:44;28.40;71.10
24338;DHT22;12457;50.832;4.346;2023-06-10T08:29:12;28.10;71.10
24338;DHT22;12457;50.832;4.346;2023-06-10T08:31:41;27.60;72.30
24338;DHT22;12457;50.832;4.346;2023-06-10T08:34:09;27.60;73.70
24338;DHT22;12457;50.832;4.346;2023-06-10T08:36:35;27.80;73.80
24338;DHT22;12457;50.832;4.346;2023-06-10T08:39:02;28.10;74.10
24338;DHT22;12457;50.832;4.346;2023-06-10T08:41:28;28.00;73.00
24338;DHT22;12457;50.832;4.346;2023-06-10T08:44:17;28.10;73.00
24338;DHT22;12457;50.832;4.346;2023-06-10T08:46:48;28.30;72.80
24338;DHT22;12457;50.832;4.346;2023-06-10T08:49:19;28.50;72.50
24338;DHT22;12457;50.832;4.346;2023-06-10T08:51:50;28.30;73.10
24338;DHT22;12457;50.832;4.346;2023-06-10T08:54:25;27.90;72.40
24338;DHT22;12457;50.832;4.346;2023-06-10T08:56:55;27.90;73.00
24338;DHT22;12457;50.832;4.346;2023-06-10T08:59:24;28.00;72.70
24338;DHT22;12457;50.832;4.346;2023-06-10T09:01:52;28.10;72.60
24338;DHT22;12457;50.832;4.346;2023-06-10T09:04:19;28.10;70.80
24338;DHT22;12457;50.832;4.346;2023-06-10T09:06:47;28.20;70.80
24338;DHT22;12457;50.832;4.346;2023-06-10T09:09:15;28.30;70.80
24338;DHT22;12457;50.832;4.346;2023-06-10T09:11:42;28.40;71.00
24338;DHT22;12457;50.832;4.346;2023-06-10T09:14:10;28.30;70.30
24338;DHT22;12457;50.832;4.346;2023-06-10T09:16:38;28.30;71.60
24338;DHT22;12457;50.832;4.346;2023-06-10T09:19:27;28.20;71.10
24338;DHT22;12457;50.832;4.346;2023-06-10T09:21:54;28.30;70.90
24338;DHT22;12457;50.832;4.346;2023-06-10T09:24:24;28.20;71.50
24338;DHT22;12457;50.832;4.346;2023-06-10T09:26:50;28.20;71.80
24338;DHT22;12457;50.832;4.346;2023-06-10T09:29:30;28.30;71.80
24338;DHT22;12457;50.832;4.346;2023-06-10T09:31:57;28.60;71.00
24338;DHT22;12457;50.832;4.346;2023-06-10T09:34:25;28.70;69.70
24338;DHT22;12457;50.832;4.346;2023-06-10T09:36:53;28.80;69.40
24338;DHT22;12457;50.832;4.346;2023-06-10T09:39:19;28.90;68.70
24338;DHT22;12457;50.832;4.346;2023-06-10T09:41:46;29.10;69.50
24338;DHT22;12457;50.832;4.346;2023-06-10T09:44:16;29.30;67.90
24338;DHT22;12457;50.832;4.346;2023-06-10T09:46:49;29.30;68.50
24338;DHT22;12457;50.832;4.346;2023-06-10T09:49:19;29.20;68.50
24338;DHT22;12457;50.832;4.346;2023-06-10T09:51:54;28.90;69.40
24338;DHT22;12457;50.832;4.346;2023-06-10T09:54:21;28.80;68.40
24338;DHT22;12457;50.832;4.346;2023-06-10T09:56:48;28.80;66.60
24338;DHT22;12457;50.832;4.346;2023-06-10T09:59:14;28.70;66.00
24338;DHT22;12457;50.832;4.346;2023-06-10T10:01:41;28.60;66.60
24338;DHT22;12457;50.832;4.346;2023-06-10T10:04:23;28.80;67.30
24338;DHT22;12457;50.832;4.346;2023-06-10T10:06:50;29.00;66.50
24338;DHT22;12457;50.832;4.346;2023-06-10T10:09:15;29.10;64.50
24338;DHT22;12457;50.832;4.346;2023-06-10T10:11:43;29.00;65.00
24338;DHT22;12457;50.832;4.346;2023-06-10T10:14:09;29.00;65.60
24338;DHT22;12457;50.832;4.346;2023-06-10T10:16:40;29.00;65.00
24338;DHT22;12457;50.832;4.346;2023-06-10T10:22:20;29.20;60.90
24338;DHT22;12457;50.832;4.346;2023-06-10T10:24:55;29.30;61.30
24338;DHT22;12457;50.832;4.346;2023-06-10T10:27:50;29.40;61.00
24338;DHT22;12457;50.832;4.346;2023-06-10T10:30:17;29.60;60.20
24338;DHT22;12457;50.832;4.346;2023-06-10T10:32:57;29.80;60.30
24338;DHT22;12457;50.832;4.346;2023-06-10T10:35:27;29.80;59.30
24338;DHT22;12457;50.832;4.346;2023-06-10T10:37:54;29.70;58.90
24338;DHT22;12457;50.832;4.346;2023-06-10T10:40:22;29.60;58.60
24338;DHT22;12457;50.832;4.346;2023-06-10T10:42:49;29.50;57.50
24338;DHT22;12457;50.832;4.346;2023-06-10T10:45:15;29.60;57.30
24338;DHT22;12457;50.832;4.346;2023-06-10T10:47:44;29.70;56.40
24338;DHT22;12457;50.832;4.346;2023-06-10T10:50:16;29.90;54.10
24338;DHT22;12457;50.832;4.346;2023-06-10T10:53:10;29.80;53.90
24338;DHT22;12457;50.832;4.346;2023-06-10T10:55:39;29.70;55.20
24338;DHT22;12457;50.832;4.346;2023-06-10T10:58:07;29.80;53.40
24338;DHT22;12457;50.832;4.346;2023-06-10T11:00:37;29.80;53.00
24338;DHT22;12457;50.832;4.346;2023-06-10T11:05:40;30.00;54.00
24338;DHT22;12457;50.832;4.346;2023-06-10T11:08:08;30.10;51.30
24338;DHT22;12457;50.832;4.346;2023-06-10T11:10:38;29.90;50.30
24338;DHT22;12457;50.832;4.346;2023-06-10T11:13:14;30.00;52.20
24338;DHT22;12457;50.832;4.346;2023-06-10T11:15:46;30.00;52.00
24338;DHT22;12457;50.832;4.346;2023-06-10T11:20:46;30.50;48.90
24338;DHT22;12457;50.832;4.346;2023-06-10T11:26:46;30.50;48.30
24338;DHT22;12457;50.832;4.346;2023-06-10T11:29:06;30.10;49.60
24338;DHT22;12457;50.832;4.346;2023-06-10T11:34:05;30.30;50.50
24338;DHT22;12457;50.832;4.346;2023-06-10T11:36:36;30.60;49.90
24338;DHT22;12457;50.832;4.346;2023-06-10T11:39:05;30.80;49.50
24338;DHT22;12457;50.832;4.346;2023-06-10T11:41:32;30.90;49.10
24338;DHT22;12457;50.832;4.346;2023-06-10T11:44:07;30.80;49.50
24338;DHT22;12457;50.832;4.346;2023-06-10T11:46:34;30.80;48.50
24338;DHT22;12457;50.832;4.346;2023-06-10T11:49:03;30.70;46.70
24338;DHT22;12457;50.832;4.346;2023-06-10T11:51:33;30.80;47.60
24338;DHT22;12457;50.832;4.346;2023-06-10T11:54:00;30.90;47.80
24338;DHT22;12457;50.832;4.346;2023-06-10T11:56:27;30.80;48.80
24338;DHT22;12457;50.832;4.346;2023-06-10T11:58:57;30.50;48.90
24338;DHT22;12457;50.832;4.346;2023-06-10T12:01:27;30.40;49.60
24338;DHT22;12457;50.832;4.346;2023-06-10T12:04:08;30.40;48.40
24338;DHT22;12457;50.832;4.346;2023-06-10T12:06:53;30.60;48.70
24338;DHT22;12457;50.832;4.346;2023-06-10T12:09:26;30.50;47.80
24338;DHT22;12457;50.832;4.346;2023-06-10T12:11:59;30.40;48.30
24338;DHT22;12457;50.832;4.346;2023-06-10T12:15:02;30.60;48.40
24338;DHT22;12457;50.832;4.346;2023-06-10T12:19:57;31.00;47.50
24338;DHT22;12457;50.832;4.346;2023-06-10T12:22:25;31.00;47.40
24338;DHT22;12457;50.832;4.346;2023-06-10T12:25:03;31.00;47.80
24338;DHT22;12457;50.832;4.346;2023-06-10T12:27:30;31.20;47.60
24338;DHT22;12457;50.832;4.346;2023-06-10T12:29:57;31.40;47.10
24338;DHT22;12457;50.832;4.346;2023-06-10T12:32:44;31.30;47.20
24338;DHT22;12457;50.832;4.346;2023-06-10T12:39:02;30.90;47.10
24338;DHT22;12457;50.832;4.346;2023-06-10T12:41:29;30.70;47.30
24338;DHT22;12457;50.832;4.346;2023-06-10T12:43:55;30.80;47.20
24338;DHT22;12457;50.832;4.346;2023-06-10T12:46:21;30.90;47.20
24338;DHT22;12457;50.832;4.346;2023-06-10T12:48:50;30.80;47.20
24338;DHT22;12457;50.832;4.346;2023-06-10T12:51:22;31.00;47.20
24338;DHT22;12457;50.832;4.346;2023-06-10T12:53:49;30.90;46.50
24338;DHT22;12457;50.832;4.346;2023-06-10T12:56:15;30.80;47.10
24338;DHT22;12457;50.832;4.346;2023-06-10T12:58:40;31.20;47.00
24338;DHT22;12457;50.832;4.346;2023-06-10T13:01:07;31.30;45.80
24338;DHT22;12457;50.832;4.346;2023-06-10T13:03:33;31.60;46.10
24338;DHT22;12457;50.832;4.346;2023-06-10T13:05:58;31.80;45.60
24338;DHT22;12457;50.832;4.346;2023-06-10T13:08:24;31.80;46.10
24338;DHT22;12457;50.832;4.346;2023-06-10T13:10:51;32.00;45.80
24338;DHT22;12457;50.832;4.346;2023-06-10T13:13:17;31.90;46.20
24338;DHT22;12457;50.832;4.346;2023-06-10T13:15:43;32.00;46.30
24338;DHT22;12457;50.832;4.346;2023-06-10T13:18:08;31.80;45.90
24338;DHT22;12457;50.832;4.346;2023-06-10T13:20:35;31.60;46.50
24338;DHT22;12457;50.832;4.346;2023-06-10T13:23:03;31.20;46.90
24338;DHT22;12457;50.832;4.346;2023-06-10T13:25:29;31.10;47.30
24338;DHT22;12457;50.832;4.346;2023-06-10T13:27:54;31.20;47.70
24338;DHT22;12457;50.832;4.346;2023-06-10T13:30:20;31.60;47.20
24338;DHT22;12457;50.832;4.346;2023-06-10T13:32:47;31.90;46.40
24338;DHT22;12457;50.832;4.346;2023-06-10T13:35:21;31.80;45.30
24338;DHT22;12457;50.832;4.346;2023-06-10T13:37:47;31.90;45.50
24338;DHT22;12457;50.832;4.346;2023-06-10T13:40:13;32.00;45.00
24338;DHT22;12457;50.832;4.346;2023-06-10T13:42:38;31.90;44.90
24338;DHT22;12457;50.832;4.346;2023-06-10T13:45:06;31.80;45.00
24338;DHT22;12457;50.832;4.346;2023-06-10T13:47:33;31.90;45.60
24338;DHT22;12457;50.832;4.346;2023-06-10T13:49:58;31.90;45.20
24338;DHT22;12457;50.832;4.346;2023-06-10T13:52:24;31.80;44.60
24338;DHT22;12457;50.832;4.346;2023-06-10T13:54:54;31.70;44.20
24338;DHT22;12457;50.832;4.346;2023-06-10T13:57:22;31.80;44.70
24338;DHT22;12457;50.832;4.346;2023-06-10T13:59:48;31.90;45.40
24338;DHT22;12457;50.832;4.346;2023-06-10T14:02:14;31.90;45.10
24338;DHT22;12457;50.832;4.346;2023-06-10T14:04:40;31.70;44.90
24338;DHT22;12457;50.832;4.346;2023-06-10T14:07:06;31.60;44.60
24338;DHT22;12457;50.832;4.346;2023-06-10T14:09:31;31.60;45.40
24338;DHT22;12457;50.832;4.346;2023-06-10T14:11:57;31.80;44.20
24338;DHT22;12457;50.832;4.346;2023-06-10T14:14:24;31.90;44.20
24338;DHT22;12457;50.832;4.346;2023-06-10T14:16:50;32.00;44.10
24338;DHT22;12457;50.832;4.346;2023-06-10T14:19:16;32.20;44.10
24338;DHT22;12457;50.832;4.346;2023-06-10T14:22:10;32.10;43.60
24338;DHT22;12457;50.832;4.346;2023-06-10T14:24:36;31.80;43.60
24338;DHT22;12457;50.832;4.346;2023-06-10T14:27:03;31.80;43.70
24338;DHT22;12457;50.832;4.346;2023-06-10T14:29:28;31.80;43.30
24338;DHT22;12457;50.832;4.346;2023-06-10T14:31:55;31.70;44.10
24338;DHT22;12457;50.832;4.346;2023-06-10T14:34:20;31.90;43.80
24338;DHT22;12457;50.832;4.346;2023-06-10T14:36:48;31.90;43.80
24338;DHT22;12457;50.832;4.346;2023-06-10T14:39:17;32.00;43.70
24338;DHT22;12457;50.832;4.346;2023-06-10T14:41:43;32.10;43.60
24338;DHT22;12457;50.832;4.346;2023-06-10T14:44:08;31.80;43.60
24338;DHT22;12457;50.832;4.346;2023-06-10T14:46:35;31.60;43.60
24338;DHT22;12457;50.832;4.346;2023-06-10T14:49:01;31.40;43.60
24338;DHT22;12457;50.832;4.346;2023-06-10T14:51:28;31.40;43.50
24338;DHT22;12457;50.832;4.346;2023-06-10T14:53:53;31.30;43.90
24338;DHT22;12457;50.832;4.346;2023-06-10T14:56:19;31.30;43.60
24338;DHT22;12457;50.832;4.346;2023-06-10T14:58:45;31.10;43.60
24338;DHT22;12457;50.832;4.346;2023-06-10T15:01:11;31.00;44.00
24338;DHT22;12457;50.832;4.346;2023-06-10T15:03:36;31.00;44.10
24338;DHT22;12457;50.832;4.346;2023-06-10T15:06:03;31.30;44.10
24338;DHT22;12457;50.832;4.346;2023-06-10T15:08:29;31.30;44.10
24338;DHT22;12457;50.832;4.346;2023-06-10T15:10:55;31.40;44.00
24338;DHT22;12457;50.832;4.346;2023-06-10T15:13:22;31.60;43.90
24338;DHT22;12457;50.832;4.346;2023-06-10T15:15:50;31.80;43.70
24338;DHT22;12457;50.832;4.346;2023-06-10T15:18:15;32.00;43.20
24338;DHT22;12457;50.832;4.346;2023-06-10T15:20:41;32.00;42.90
24338;DHT22;12457;50.832;4.346;2023-06-10T15:23:07;32.00;43.00
24338;DHT22;12457;50.832;4.346;2023-06-10T15:25:33;31.70;42.80
24338;DHT22;12457;50.832;4.346;2023-06-10T15:28:00;31.50;43.30
24338;DHT22;12457;50.832;4.346;2023-06-10T15:30:25;31.40;43.60
24338;DHT22;12457;50.832;4.346;2023-06-10T15:32:52;31.40;43.40
24338;DHT22;12457;50.832;4.346;2023-06-10T15:35:18;31.50;43.50
24338;DHT22;12457;50.832;4.346;2023-06-10T15:37:44;31.60;43.70
24338;DHT22;12457;50.832;4.346;2023-06-10T15:40:11;31.70;43.40
24338;DHT22;12457;50.832;4.346;2023-06-10T15:42:39;31.60;43.40
24338;DHT22;12457;50.832;4.346;2023-06-10T15:45:05;31.60;43.70
24338;DHT22;12457;50.832;4.346;2023-06-10T15:47:31;31.60;43.10
24338;DHT22;12457;50.832;4.346;2023-06-10T15:49:57;31.40;43.40
24338;DHT22;12457;50.832;4.346;2023-06-10T15:52:23;31.30;43.70
24338;DHT22;12457;50.832;4.346;2023-06-10T15:54:48;31.40;43.80
24338;DHT22;12457;50.832;4.346;2023-06-10T15:57:14;31.50;43.60
24338;DHT22;12457;50.832;4.346;2023-06-10T15:59:40;31.40;43.80
24338;DHT22;12457;50.832;4.346;2023-06-10T16:02:06;31.50;43.90
24338;DHT22;12457;50.832;4.346;2023-06-10T16:04:31;31.60;43.70
24338;DHT22;12457;50.832;4.346;2023-06-10T16:06:57;31.60;43.70
24338;DHT22;12457;50.832;4.346;2023-06-10T16:09:23;31.70;43.70